Colorado Star — 9HA2189 — position and weather

sailwx.info

Track history (hours):
 
Tides and Currents Weather Stations Pressure Air Temp Water Temp Dewpoint Dewpoint Depression Visibility Wind Speed Wind Dir Waves Ship Positions

Colorado Star

Last reported at 2014-Aug-01 07:11 UTC. Time now 2014-Aug-01 07:59 UTC.
Position N 51°56' E 004°10'.

Length 128 m; draft 6.1 m.

Type: Ship. MMSI: 248127000.

Date/timePositionNaut miles runAvg speedWind from/ knotsBaromVisibWave heightAir tempDewpointWater temp
2014-Aug-01 07:11N 51°56' E 004°10'0 0.0
2014-Aug-01 06:29N 51°56' E 004°10'0 0.0
2014-Aug-01 05:14N 51°56' E 004°10'0 0.0
2014-Aug-01 04:17N 51°56' E 004°10'0 0.0
2014-Aug-01 03:32N 51°56' E 004°10'0 0.0
2014-Aug-01 02:32N 51°56' E 004°10'0 0.0
2014-Aug-01 01:29N 51°56' E 004°10'0 0.0
2014-Aug-01 00:20N 51°56' E 004°10'0 0.0
2014-Jul-31 23:29N 51°56' E 004°10'0 0.0
2014-Jul-31 22:29N 51°56' E 004°10'0 0.0
2014-Jul-31 20:20N 51°56' E 004°10'0 0.0
2014-Jul-31 18:32N 51°56' E 004°10'0 0.0
2014-Jul-31 17:32N 51°56' E 004°10'0 0.0
2014-Jul-31 16:29N 51°56' E 004°10'0 0.1
2014-Jul-31 15:33N 51°57' E 004°10'8 7.9
2014-Jul-31 14:33N 51°60' E 003°58'1110.6
2014-Jul-31 13:33N 51°58' E 003°41'5 5.3
2014-Jul-31 12:32N 51°55' E 003°34'1 0.3
2014-Jul-31 09:13N 51°56' E 003°32'710.0
2014-Jul-31 08:33N 51°55' E 003°22'1211.6
2014-Jul-31 07:33N 51°51' E 003°04'1312.5
2014-Jul-31 06:32N 51°48' E 002°44'1413.4
2014-Jul-31 05:31N 51°39' E 002°27'1313.6
2014-Jul-31 04:34N 51°28' E 002°15'1413.7
2014-Jul-31 03:33N 51°16' E 002°05'1414.4
2014-Jul-31 02:33N 51°07' E 001°47'1515.4
2014-Jul-31 01:33N 50°56' E 001°29'1414.2
2014-Jul-31 00:33N 50°43' E 001°22'1313.5
2014-Jul-30 23:34N 50°34' E 001°06'1413.5
2014-Jul-30 22:33N 50°27' E 000°48'1413.7
2014-Jul-30 21:34N 50°23' E 000°27'1613.0
2014-Jul-30 20:19N 50°17' E 000°04'3511.4
2014-Jul-30 17:15N 49°43' W 000°09'811.3
2014-Jul-30 16:33N 49°35' W 000°10'1010.3
2014-Jul-30 15:33N 49°28' E 000°00'1313.0
2014-Jul-30 14:34N 49°26' E 000°20'10 9.2
2014-Jul-30 13:28N 49°26' E 000°35'4 0.2
2014-Jul-29 12:27N 49°28' E 000°40'8 9.1
2014-Jul-29 11:33N 49°28' E 000°27'1312.7
2014-Jul-29 10:33N 49°26' E 000°08'10 9.6
2014-Jul-29 09:33N 49°29' W 000°06'2 1.6
2014-Jul-29 08:33N 49°29' W 000°08'0 0.0
2014-Jul-29 07:33N 49°29' W 000°08'0 0.0
2014-Jul-29 06:33N 49°29' W 000°08'0 0.0
2014-Jul-29 05:33N 49°29' W 000°08'0 0.0
2014-Jul-29 04:33N 49°29' W 000°08'0 0.0
2014-Jul-29 03:33N 49°29' W 000°08'0 0.0
2014-Jul-29 02:33N 49°29' W 000°08'0 0.1
2014-Jul-29 01:33N 49°29' W 000°08'0 0.0
2014-Jul-29 00:30N 49°29' W 000°08'0 0.0
2014-Jul-28 23:33N 49°29' W 000°08'0 0.1
2014-Jul-28 22:33N 49°29' W 000°08'0 0.0
2014-Jul-28 21:33N 49°29' W 000°08'0 0.1
2014-Jul-28 20:33N 49°29' W 000°08'0 0.0
2014-Jul-28 19:33N 49°29' W 000°08'0 0.1
2014-Jul-28 18:33N 49°29' W 000°08'0 0.0
2014-Jul-28 17:33N 49°29' W 000°08'0 0.0
2014-Jul-28 16:33N 49°29' W 000°08'0 0.0
2014-Jul-28 15:33N 49°29' W 000°08'0 0.0
2014-Jul-28 14:33N 49°29' W 000°08'0 0.0
2014-Jul-28 13:33N 49°29' W 000°08'0 0.1
2014-Jul-28 12:33N 49°29' W 000°08'0 0.1
2014-Jul-28 11:33N 49°29' W 000°08'0 0.1
2014-Jul-28 10:33N 49°29' W 000°08'0 0.0
2014-Jul-28 09:33N 49°29' W 000°08'0 0.0
2014-Jul-28 08:33N 49°29' W 000°08'0 0.0
2014-Jul-28 07:33N 49°29' W 000°08'0 0.0
2014-Jul-28 06:33N 49°29' W 000°08'0 0.1
2014-Jul-28 05:33N 49°29' W 000°08'0 0.0
2014-Jul-28 04:33N 49°29' W 000°08'0 0.0
2014-Jul-28 03:33N 49°29' W 000°08'0 0.0
2014-Jul-28 02:33N 49°29' W 000°08'0 0.1
2014-Jul-28 01:33N 49°29' W 000°08'0 0.0
2014-Jul-28 00:33N 49°29' W 000°08'0 0.0
2014-Jul-27 23:33N 49°29' W 000°08'0 0.0
2014-Jul-27 22:33N 49°29' W 000°08'0 0.0
2014-Jul-27 21:33N 49°29' W 000°08'0 0.0
2014-Jul-27 20:33N 49°29' W 000°08'0 0.0
2014-Jul-27 19:33N 49°29' W 000°08'0 0.0
2014-Jul-27 18:33N 49°29' W 000°08'0 0.1
2014-Jul-27 17:33N 49°29' W 000°08'0 0.0
2014-Jul-27 16:27N 49°29' W 000°08'0 0.0
2014-Jul-27 15:33N 49°29' W 000°08'0 0.0
2014-Jul-27 14:33N 49°29' W 000°08'0 0.0
2014-Jul-27 13:33N 49°29' W 000°08'0 0.1
2014-Jul-27 12:33N 49°29' W 000°08'0 0.1
2014-Jul-27 11:33N 49°29' W 000°08'0 0.0
2014-Jul-27 10:33N 49°29' W 000°08'0 0.0
2014-Jul-27 09:33N 49°29' W 000°08'0 0.0
2014-Jul-27 08:33N 49°29' W 000°08'0 0.0
2014-Jul-27 07:33N 49°29' W 000°08'0 0.0
2014-Jul-27 06:33N 49°29' W 000°08'0 0.0
2014-Jul-27 05:33N 49°29' W 000°08'0 0.1
2014-Jul-27 04:33N 49°29' W 000°08'0 0.0
2014-Jul-27 03:33N 49°29' W 000°08'0 0.0
2014-Jul-27 02:33N 49°29' W 000°08'0 0.0
2014-Jul-27 01:33N 49°29' W 000°08'0 0.1
2014-Jul-27 00:33N 49°29' W 000°08'0 0.1
2014-Jul-26 23:33N 49°29' W 000°08'0 0.0
2014-Jul-26 22:33N 49°29' W 000°08'0 0.0
2014-Jul-26 21:33N 49°29' W 000°08'0 0.0
2014-Jul-26 20:33N 49°29' W 000°08'0 0.0
2014-Jul-26 19:33N 49°29' W 000°08'0 0.1
2014-Jul-26 18:33N 49°29' W 000°08'0 0.1
2014-Jul-26 17:33N 49°29' W 000°08'0 0.0
2014-Jul-26 16:33N 49°29' W 000°08'0 0.0
2014-Jul-26 15:33N 49°29' W 000°08'0 0.0
2014-Jul-26 14:33N 49°29' W 000°08'0 0.0
2014-Jul-26 13:33N 49°29' W 000°08'0 0.1
2014-Jul-26 12:33N 49°29' W 000°08'0 0.1
2014-Jul-26 11:33N 49°29' W 000°08'0 0.0
2014-Jul-26 10:33N 49°29' W 000°08'0 0.0
2014-Jul-26 09:33N 49°29' W 000°08'0 0.0
2014-Jul-26 08:33N 49°29' W 000°08'0 0.0
2014-Jul-26 07:33N 49°29' W 000°08'0 0.1
2014-Jul-26 06:33N 49°29' W 000°08'0 0.1
2014-Jul-26 05:33N 49°29' W 000°08'0 0.0
2014-Jul-26 04:33N 49°29' W 000°08'0 0.0
2014-Jul-26 03:33N 49°29' W 000°08'0 0.0
2014-Jul-26 02:33N 49°29' W 000°08'0 0.0
2014-Jul-26 01:33N 49°29' W 000°08'0 0.0
2014-Jul-26 00:33N 49°29' W 000°08'0 0.0
2014-Jul-25 23:33N 49°29' W 000°08'0 0.1
2014-Jul-25 22:33N 49°29' W 000°08'0 0.1
2014-Jul-25 21:33N 49°29' W 000°08'0 0.0
2014-Jul-25 20:27N 49°29' W 000°08'0 0.1
2014-Jul-25 19:33N 49°29' W 000°08'0 0.0
2014-Jul-25 18:33N 49°29' W 000°08'0 0.0
2014-Jul-25 17:33N 49°29' W 000°08'0 0.0
2014-Jul-25 16:33N 49°29' W 000°08'0 0.0
2014-Jul-25 15:33N 49°29' W 000°08'0 0.0
2014-Jul-25 14:33N 49°29' W 000°08'0 0.0
2014-Jul-25 13:33N 49°29' W 000°08'2 1.8
2014-Jul-25 12:33N 49°29' W 000°06'1211.7
2014-Jul-25 11:33N 49°26' E 000°12'1311.4
2014-Jul-25 10:26N 49°29' E 000°31'6 6.8
2014-Jul-25 09:33N 49°27' E 000°40'4 0.1
2014-Jul-24 06:22N 49°27' E 000°34'8 9.7
2014-Jul-24 05:33N 49°26' E 000°22'1212.3
2014-Jul-24 04:33N 49°27' E 000°03'8 7.5
2014-Jul-24 03:33N 49°29' W 000°08'0 0.0
2014-Jul-24 02:33N 49°29' W 000°08'0 0.0
2014-Jul-24 01:33N 49°29' W 000°08'0 0.0
2014-Jul-24 00:33N 49°29' W 000°08'0 0.0
2014-Jul-23 23:33N 49°29' W 000°08'0 0.0
2014-Jul-23 22:33N 49°29' W 000°08'0 0.0
2014-Jul-23 21:33N 49°29' W 000°08'0 0.1
2014-Jul-23 20:33N 49°29' W 000°08'0 0.0
2014-Jul-23 19:33N 49°29' W 000°08'0 0.0
2014-Jul-23 18:33N 49°29' W 000°08'0 0.1
2014-Jul-23 17:33N 49°29' W 000°08'0 0.0
2014-Jul-23 16:33N 49°29' W 000°08'0 0.0
2014-Jul-23 15:33N 49°29' W 000°08'0 0.0
2014-Jul-23 14:33N 49°29' W 000°08'0 0.0
2014-Jul-23 13:33N 49°29' W 000°08'0 0.0
2014-Jul-23 12:33N 49°29' W 000°08'0 0.0
2014-Jul-23 11:33N 49°29' W 000°08'0 0.0
2014-Jul-23 10:33N 49°29' W 000°08'0 0.0
2014-Jul-23 09:33N 49°29' W 000°08'0 0.1
2014-Jul-23 08:33N 49°29' W 000°08'0 0.0
2014-Jul-23 07:33N 49°29' W 000°08'0 0.0
2014-Jul-23 06:33N 49°29' W 000°08'0 0.0
2014-Jul-23 05:33N 49°29' W 000°08'0 0.2
2014-Jul-23 04:33N 49°29' W 000°08'0 0.1
2014-Jul-23 03:33N 49°29' W 000°08'0 0.0
2014-Jul-23 02:33N 49°29' W 000°08'0 0.0
2014-Jul-23 01:33N 49°29' W 000°08'0 0.0
2014-Jul-23 00:33N 49°29' W 000°08'0 0.0
2014-Jul-22 23:33N 49°29' W 000°08'0 0.0
2014-Jul-22 22:33N 49°29' W 000°08'0 0.0
2014-Jul-22 21:33N 49°29' W 000°08'0 0.0
2014-Jul-22 20:33N 49°29' W 000°08'0 0.0
2014-Jul-22 19:33N 49°29' W 000°08'0 0.1
2014-Jul-22 18:33N 49°29' W 000°08'0 0.0
2014-Jul-22 17:33N 49°29' W 000°08'0 0.1
2014-Jul-22 16:33N 49°29' W 000°08'0 0.2
2014-Jul-22 15:33N 49°29' W 000°08'0 0.0
2014-Jul-22 14:33N 49°29' W 000°08'0 0.0
2014-Jul-22 13:33N 49°29' W 000°08'0 0.0
2014-Jul-22 12:33N 49°29' W 000°08'0 0.0
2014-Jul-22 11:33N 49°29' W 000°08'0 0.0
2014-Jul-22 10:33N 49°29' W 000°08'2 2.4
2014-Jul-22 09:33N 49°29' W 000°05'1110.7
2014-Jul-22 08:33N 49°26' E 000°11'1110.8
2014-Jul-22 07:33N 49°28' E 000°27'  
Track history (hours):
 
Tides and Currents Weather Stations Pressure Air Temp Water Temp Dewpoint Dewpoint Depression Visibility Wind Speed Wind Dir Waves Ship Positions

Colorado Star

Last reported at 2014-Aug-01 07:11 UTC. Time now 2014-Aug-01 07:59 UTC.
Position N 51°56' E 004°10'.

Length 128 m; draft 6.1 m.

Type: Ship. MMSI: 248127000.

Date/timePositionNaut miles runAvg speedWind from/ knotsBaromVisibWave heightAir tempDewpointWater temp
2014-Aug-01 07:11N 51°56' E 004°10'0 0.0
2014-Aug-01 06:29N 51°56' E 004°10'0 0.0
2014-Aug-01 05:14N 51°56' E 004°10'0 0.0
2014-Aug-01 04:17N 51°56' E 004°10'0 0.0
2014-Aug-01 03:32N 51°56' E 004°10'0 0.0
2014-Aug-01 02:32N 51°56' E 004°10'0 0.0
2014-Aug-01 01:29N 51°56' E 004°10'0 0.0
2014-Aug-01 00:20N 51°56' E 004°10'0 0.0
2014-Jul-31 23:29N 51°56' E 004°10'0 0.0
2014-Jul-31 22:29N 51°56' E 004°10'0 0.0
2014-Jul-31 20:20N 51°56' E 004°10'0 0.0
2014-Jul-31 18:32N 51°56' E 004°10'0 0.0
2014-Jul-31 17:32N 51°56' E 004°10'0 0.0
2014-Jul-31 16:29N 51°56' E 004°10'0 0.1
2014-Jul-31 15:33N 51°57' E 004°10'8 7.9
2014-Jul-31 14:33N 51°60' E 003°58'1110.6
2014-Jul-31 13:33N 51°58' E 003°41'5 5.3
2014-Jul-31 12:32N 51°55' E 003°34'1 0.3
2014-Jul-31 09:13N 51°56' E 003°32'710.0
2014-Jul-31 08:33N 51°55' E 003°22'1211.6
2014-Jul-31 07:33N 51°51' E 003°04'1312.5
2014-Jul-31 06:32N 51°48' E 002°44'1413.4
2014-Jul-31 05:31N 51°39' E 002°27'1313.6
2014-Jul-31 04:34N 51°28' E 002°15'1413.7
2014-Jul-31 03:33N 51°16' E 002°05'1414.4
2014-Jul-31 02:33N 51°07' E 001°47'1515.4
2014-Jul-31 01:33N 50°56' E 001°29'1414.2
2014-Jul-31 00:33N 50°43' E 001°22'1313.5
2014-Jul-30 23:34N 50°34' E 001°06'1413.5
2014-Jul-30 22:33N 50°27' E 000°48'1413.7
2014-Jul-30 21:34N 50°23' E 000°27'1613.0
2014-Jul-30 20:19N 50°17' E 000°04'3511.4
2014-Jul-30 17:15N 49°43' W 000°09'811.3
2014-Jul-30 16:33N 49°35' W 000°10'1010.3
2014-Jul-30 15:33N 49°28' E 000°00'1313.0
2014-Jul-30 14:34N 49°26' E 000°20'10 9.2
2014-Jul-30 13:28N 49°26' E 000°35'4 0.2
2014-Jul-29 12:27N 49°28' E 000°40'8 9.1
2014-Jul-29 11:33N 49°28' E 000°27'1312.7
2014-Jul-29 10:33N 49°26' E 000°08'10 9.6
2014-Jul-29 09:33N 49°29' W 000°06'2 1.6
2014-Jul-29 08:33N 49°29' W 000°08'0 0.0
2014-Jul-29 07:33N 49°29' W 000°08'0 0.0
2014-Jul-29 06:33N 49°29' W 000°08'0 0.0
2014-Jul-29 05:33N 49°29' W 000°08'0 0.0
2014-Jul-29 04:33N 49°29' W 000°08'0 0.0
2014-Jul-29 03:33N 49°29' W 000°08'0 0.0
2014-Jul-29 02:33N 49°29' W 000°08'0 0.1
2014-Jul-29 01:33N 49°29' W 000°08'0 0.0
2014-Jul-29 00:30N 49°29' W 000°08'0 0.0
2014-Jul-28 23:33N 49°29' W 000°08'0 0.1
2014-Jul-28 22:33N 49°29' W 000°08'0 0.0
2014-Jul-28 21:33N 49°29' W 000°08'0 0.1
2014-Jul-28 20:33N 49°29' W 000°08'0 0.0
2014-Jul-28 19:33N 49°29' W 000°08'0 0.1
2014-Jul-28 18:33N 49°29' W 000°08'0 0.0
2014-Jul-28 17:33N 49°29' W 000°08'0 0.0
2014-Jul-28 16:33N 49°29' W 000°08'0 0.0
2014-Jul-28 15:33N 49°29' W 000°08'0 0.0
2014-Jul-28 14:33N 49°29' W 000°08'0 0.0
2014-Jul-28 13:33N 49°29' W 000°08'0 0.1
2014-Jul-28 12:33N 49°29' W 000°08'0 0.1
2014-Jul-28 11:33N 49°29' W 000°08'0 0.1
2014-Jul-28 10:33N 49°29' W 000°08'0 0.0
2014-Jul-28 09:33N 49°29' W 000°08'0 0.0
2014-Jul-28 08:33N 49°29' W 000°08'0 0.0
2014-Jul-28 07:33N 49°29' W 000°08'0 0.0
2014-Jul-28 06:33N 49°29' W 000°08'0 0.1
2014-Jul-28 05:33N 49°29' W 000°08'0 0.0
2014-Jul-28 04:33N 49°29' W 000°08'0 0.0
2014-Jul-28 03:33N 49°29' W 000°08'0 0.0
2014-Jul-28 02:33N 49°29' W 000°08'0 0.1
2014-Jul-28 01:33N 49°29' W 000°08'0 0.0
2014-Jul-28 00:33N 49°29' W 000°08'0 0.0
2014-Jul-27 23:33N 49°29' W 000°08'0 0.0
2014-Jul-27 22:33N 49°29' W 000°08'0 0.0
2014-Jul-27 21:33N 49°29' W 000°08'0 0.0
2014-Jul-27 20:33N 49°29' W 000°08'0 0.0
2014-Jul-27 19:33N 49°29' W 000°08'0 0.0
2014-Jul-27 18:33N 49°29' W 000°08'0 0.1
2014-Jul-27 17:33N 49°29' W 000°08'0 0.0
2014-Jul-27 16:27N 49°29' W 000°08'0 0.0
2014-Jul-27 15:33N 49°29' W 000°08'0 0.0
2014-Jul-27 14:33N 49°29' W 000°08'0 0.0
2014-Jul-27 13:33N 49°29' W 000°08'0 0.1
2014-Jul-27 12:33N 49°29' W 000°08'0 0.1
2014-Jul-27 11:33N 49°29' W 000°08'0 0.0
2014-Jul-27 10:33N 49°29' W 000°08'0 0.0
2014-Jul-27 09:33N 49°29' W 000°08'0 0.0
2014-Jul-27 08:33N 49°29' W 000°08'0 0.0
2014-Jul-27 07:33N 49°29' W 000°08'0 0.0
2014-Jul-27 06:33N 49°29' W 000°08'0 0.0
2014-Jul-27 05:33N 49°29' W 000°08'0 0.1
2014-Jul-27 04:33N 49°29' W 000°08'0 0.0
2014-Jul-27 03:33N 49°29' W 000°08'0 0.0
2014-Jul-27 02:33N 49°29' W 000°08'0 0.0
2014-Jul-27 01:33N 49°29' W 000°08'0 0.1
2014-Jul-27 00:33N 49°29' W 000°08'0 0.1
2014-Jul-26 23:33N 49°29' W 000°08'0 0.0
2014-Jul-26 22:33N 49°29' W 000°08'0 0.0
2014-Jul-26 21:33N 49°29' W 000°08'0 0.0
2014-Jul-26 20:33N 49°29' W 000°08'0 0.0
2014-Jul-26 19:33N 49°29' W 000°08'0 0.1
2014-Jul-26 18:33N 49°29' W 000°08'0 0.1
2014-Jul-26 17:33N 49°29' W 000°08'0 0.0
2014-Jul-26 16:33N 49°29' W 000°08'0 0.0
2014-Jul-26 15:33N 49°29' W 000°08'0 0.0
2014-Jul-26 14:33N 49°29' W 000°08'0 0.0
2014-Jul-26 13:33N 49°29' W 000°08'0 0.1
2014-Jul-26 12:33N 49°29' W 000°08'0 0.1
2014-Jul-26 11:33N 49°29' W 000°08'0 0.0
2014-Jul-26 10:33N 49°29' W 000°08'0 0.0
2014-Jul-26 09:33N 49°29' W 000°08'0 0.0
2014-Jul-26 08:33N 49°29' W 000°08'0 0.0
2014-Jul-26 07:33N 49°29' W 000°08'0 0.1
2014-Jul-26 06:33N 49°29' W 000°08'0 0.1
2014-Jul-26 05:33N 49°29' W 000°08'0 0.0
2014-Jul-26 04:33N 49°29' W 000°08'0 0.0
2014-Jul-26 03:33N 49°29' W 000°08'0 0.0
2014-Jul-26 02:33N 49°29' W 000°08'0 0.0
2014-Jul-26 01:33N 49°29' W 000°08'0 0.0
2014-Jul-26 00:33N 49°29' W 000°08'0 0.0
2014-Jul-25 23:33N 49°29' W 000°08'0 0.1
2014-Jul-25 22:33N 49°29' W 000°08'0 0.1
2014-Jul-25 21:33N 49°29' W 000°08'0 0.0
2014-Jul-25 20:27N 49°29' W 000°08'0 0.1
2014-Jul-25 19:33N 49°29' W 000°08'0 0.0
2014-Jul-25 18:33N 49°29' W 000°08'0 0.0
2014-Jul-25 17:33N 49°29' W 000°08'0 0.0
2014-Jul-25 16:33N 49°29' W 000°08'0 0.0
2014-Jul-25 15:33N 49°29' W 000°08'0 0.0
2014-Jul-25 14:33N 49°29' W 000°08'0 0.0
2014-Jul-25 13:33N 49°29' W 000°08'2 1.8
2014-Jul-25 12:33N 49°29' W 000°06'1211.7
2014-Jul-25 11:33N 49°26' E 000°12'1311.4
2014-Jul-25 10:26N 49°29' E 000°31'6 6.8
2014-Jul-25 09:33N 49°27' E 000°40'4 0.1
2014-Jul-24 06:22N 49°27' E 000°34'8 9.7
2014-Jul-24 05:33N 49°26' E 000°22'1212.3
2014-Jul-24 04:33N 49°27' E 000°03'8 7.5
2014-Jul-24 03:33N 49°29' W 000°08'0 0.0
2014-Jul-24 02:33N 49°29' W 000°08'0 0.0
2014-Jul-24 01:33N 49°29' W 000°08'0 0.0
2014-Jul-24 00:33N 49°29' W 000°08'0 0.0
2014-Jul-23 23:33N 49°29' W 000°08'0 0.0
2014-Jul-23 22:33N 49°29' W 000°08'0 0.0
2014-Jul-23 21:33N 49°29' W 000°08'0 0.1
2014-Jul-23 20:33N 49°29' W 000°08'0 0.0
2014-Jul-23 19:33N 49°29' W 000°08'0 0.0
2014-Jul-23 18:33N 49°29' W 000°08'0 0.1
2014-Jul-23 17:33N 49°29' W 000°08'0 0.0
2014-Jul-23 16:33N 49°29' W 000°08'0 0.0
2014-Jul-23 15:33N 49°29' W 000°08'0 0.0
2014-Jul-23 14:33N 49°29' W 000°08'0 0.0
2014-Jul-23 13:33N 49°29' W 000°08'0 0.0
2014-Jul-23 12:33N 49°29' W 000°08'0 0.0
2014-Jul-23 11:33N 49°29' W 000°08'0 0.0
2014-Jul-23 10:33N 49°29' W 000°08'0 0.0
2014-Jul-23 09:33N 49°29' W 000°08'0 0.1
2014-Jul-23 08:33N 49°29' W 000°08'0 0.0
2014-Jul-23 07:33N 49°29' W 000°08'0 0.0
2014-Jul-23 06:33N 49°29' W 000°08'0 0.0
2014-Jul-23 05:33N 49°29' W 000°08'0 0.2
2014-Jul-23 04:33N 49°29' W 000°08'0 0.1
2014-Jul-23 03:33N 49°29' W 000°08'0 0.0
2014-Jul-23 02:33N 49°29' W 000°08'0 0.0
2014-Jul-23 01:33N 49°29' W 000°08'0 0.0
2014-Jul-23 00:33N 49°29' W 000°08'0 0.0
2014-Jul-22 23:33N 49°29' W 000°08'0 0.0
2014-Jul-22 22:33N 49°29' W 000°08'0 0.0
2014-Jul-22 21:33N 49°29' W 000°08'0 0.0
2014-Jul-22 20:33N 49°29' W 000°08'0 0.0
2014-Jul-22 19:33N 49°29' W 000°08'0 0.1
2014-Jul-22 18:33N 49°29' W 000°08'0 0.0
2014-Jul-22 17:33N 49°29' W 000°08'0 0.1
2014-Jul-22 16:33N 49°29' W 000°08'0 0.2
2014-Jul-22 15:33N 49°29' W 000°08'0 0.0
2014-Jul-22 14:33N 49°29' W 000°08'0 0.0
2014-Jul-22 13:33N 49°29' W 000°08'0 0.0
2014-Jul-22 12:33N 49°29' W 000°08'0 0.0
2014-Jul-22 11:33N 49°29' W 000°08'0 0.0
2014-Jul-22 10:33N 49°29' W 000°08'2 2.4
2014-Jul-22 09:33N 49°29' W 000°05'1110.7
2014-Jul-22 08:33N 49°26' E 000°11'1110.8
2014-Jul-22 07:33N 49°28' E 000°27'  

Dump ship's entire track history